RYR6VC EPKK-EGPH
Flight info
| Callsign | RYR6VC |
|---|---|
| Flight time | N/A |
| Altitude | 36000 |
| Route | OMFOL DCT DINOV T738 LASIS L986 KOBUS DCT RENEQ DCT AGPED |
| Aircraft | B738/M-SDE2E3FGHIRWXY/LB1 |
Departure
| Time | 2026-05-01 08:19 |
|---|---|
| Airport | Kraków John Paul II International Airport (EPKK) |
Arrival
| Time | N/A |
|---|---|
| Airport | Edinburgh Airport (EGPH) |
| Time | Latitude | Longitude | Altitude | Speed | Heading |
|---|---|---|---|---|---|
| 2026-05-01 07:46 | 50.07342 | 19.80205 | 799 ft | 0 kts | 168° |
| 2026-05-01 08:11 | 50.07374 | 19.80195 | 799 ft | 4 kts | 168° |
| 2026-05-01 08:11 | 50.07410 | 19.80180 | 799 ft | 4 kts | 133° |
| 2026-05-01 08:12 | 50.07412 | 19.80122 | 799 ft | 0 kts | 77° |
| 2026-05-01 08:15 | 50.07413 | 19.80125 | 799 ft | 1 kts | 77° |
| 2026-05-01 08:15 | 50.07431 | 19.80256 | 799 ft | 11 kts | 77° |
| 2026-05-01 08:15 | 50.07460 | 19.80365 | 799 ft | 11 kts | 38° |
| 2026-05-01 08:16 | 50.07528 | 19.80405 | 799 ft | 11 kts | 17° |
| 2026-05-01 08:16 | 50.07601 | 19.80418 | 799 ft | 10 kts | 349° |
| 2026-05-01 08:16 | 50.07670 | 19.80395 | 799 ft | 10 kts | 348° |
| 2026-05-01 08:16 | 50.07737 | 19.80373 | 799 ft | 10 kts | 348° |
| 2026-05-01 08:17 | 50.07805 | 19.80350 | 799 ft | 10 kts | 348° |
| 2026-05-01 08:17 | 50.07882 | 19.80325 | 799 ft | 11 kts | 348° |
| 2026-05-01 08:17 | 50.07957 | 19.80298 | 799 ft | 11 kts | 347° |
| 2026-05-01 08:17 | 50.08017 | 19.80245 | 799 ft | 10 kts | 280° |
| 2026-05-01 08:18 | 50.08006 | 19.80158 | 800 ft | 7 kts | 258° |
| 2026-05-01 08:18 | 50.07813 | 19.78770 | 801 ft | 131 kts | 258° |
| 2026-05-01 08:19 | 50.07331 | 19.75375 | 1845 ft | 165 kts | 258° |
| 2026-05-01 08:19 | 50.07083 | 19.73633 | 2706 ft | 168 kts | 259° |
| 2026-05-01 08:19 | 50.06820 | 19.71720 | 3202 ft | 196 kts | 261° |
| 2026-05-01 08:19 | 50.06517 | 19.69501 | 3454 ft | 222 kts | 260° |
| 2026-05-01 08:20 | 50.06176 | 19.67026 | 3928 ft | 238 kts | 260° |
| 2026-05-01 08:20 | 50.05809 | 19.64410 | 4366 ft | 256 kts | 259° |
| 2026-05-01 08:20 | 50.05415 | 19.61629 | 5060 ft | 265 kts | 261° |
| 2026-05-01 08:20 | 50.05304 | 19.58826 | 5874 ft | 264 kts | 287° |
| 2026-05-01 08:21 | 50.05897 | 19.56083 | 6758 ft | 265 kts | 295° |
| 2026-05-01 08:21 | 50.06563 | 19.53387 | 7537 ft | 271 kts | 295° |
| 2026-05-01 08:21 | 50.07248 | 19.50625 | 8284 ft | 276 kts | 296° |
| 2026-05-01 08:21 | 50.07940 | 19.47796 | 9031 ft | 281 kts | 296° |
| 2026-05-01 08:22 | 50.08633 | 19.44918 | 9793 ft | 287 kts | 296° |
| 2026-05-01 08:22 | 50.09334 | 19.41972 | 10510 ft | 292 kts | 296° |
| 2026-05-01 08:22 | 50.10066 | 19.38884 | 10853 ft | 312 kts | 296° |
| 2026-05-01 08:22 | 50.10846 | 19.35589 | 11065 ft | 335 kts | 295° |
| 2026-05-01 08:23 | 50.11656 | 19.32119 | 11567 ft | 345 kts | 295° |
| 2026-05-01 08:23 | 50.12475 | 19.28579 | 12295 ft | 349 kts | 295° |
| 2026-05-01 08:23 | 50.13295 | 19.25008 | 13059 ft | 352 kts | 295° |
| 2026-05-01 08:23 | 50.14122 | 19.21398 | 13788 ft | 355 kts | 295° |
| 2026-05-01 08:24 | 50.14957 | 19.17751 | 14465 ft | 360 kts | 295° |
| 2026-05-01 08:24 | 50.15793 | 19.14098 | 15070 ft | 364 kts | 295° |
| 2026-05-01 08:24 | 50.16662 | 19.10294 | 15684 ft | 369 kts | 295° |
| 2026-05-01 08:24 | 50.17527 | 19.06505 | 16288 ft | 374 kts | 295° |
| 2026-05-01 08:25 | 50.18408 | 19.02636 | 16890 ft | 378 kts | 295° |
| 2026-05-01 08:25 | 50.19314 | 18.98656 | 17498 ft | 383 kts | 295° |
| 2026-05-01 08:25 | 50.20212 | 18.94701 | 18101 ft | 388 kts | 296° |
| 2026-05-01 08:25 | 50.21123 | 18.90679 | 18684 ft | 392 kts | 296° |
| 2026-05-01 08:26 | 50.21888 | 18.87294 | 19123 ft | 396 kts | 296° |
| 2026-05-01 08:26 | 50.22831 | 18.83115 | 19678 ft | 399 kts | 296° |
| 2026-05-01 08:26 | 50.23754 | 18.79014 | 20224 ft | 402 kts | 296° |
| 2026-05-01 08:26 | 50.24686 | 18.74868 | 20755 ft | 406 kts | 296° |
| 2026-05-01 08:27 | 50.25585 | 18.70860 | 21253 ft | 409 kts | 296° |
| 2026-05-01 08:27 | 50.26527 | 18.66651 | 21765 ft | 412 kts | 296° |
| 2026-05-01 08:27 | 50.27157 | 18.63833 | 22110 ft | 415 kts | 296° |
| 2026-05-01 08:27 | 50.28114 | 18.59549 | 22611 ft | 418 kts | 296° |
| 2026-05-01 08:28 | 50.29074 | 18.55237 | 23118 ft | 421 kts | 296° |
| 2026-05-01 08:28 | 50.30040 | 18.50889 | 23597 ft | 425 kts | 296° |
| 2026-05-01 08:28 | 50.31012 | 18.46508 | 24047 ft | 428 kts | 296° |
| 2026-05-01 08:28 | 50.32004 | 18.42025 | 24465 ft | 431 kts | 296° |
| 2026-05-01 08:29 | 50.32974 | 18.37633 | 24879 ft | 433 kts | 296° |
| 2026-05-01 08:29 | 50.33956 | 18.33171 | 25281 ft | 435 kts | 296° |
| 2026-05-01 08:29 | 50.34948 | 18.28660 | 25675 ft | 437 kts | 296° |
| 2026-05-01 08:29 | 50.35926 | 18.24201 | 26045 ft | 440 kts | 296° |
| 2026-05-01 08:30 | 50.36933 | 18.19603 | 26437 ft | 442 kts | 296° |
| 2026-05-01 08:30 | 50.37932 | 18.15028 | 26805 ft | 444 kts | 296° |
| 2026-05-01 08:30 | 50.38934 | 18.10432 | 27177 ft | 447 kts | 295° |
| 2026-05-01 08:30 | 50.39940 | 18.05807 | 27539 ft | 449 kts | 295° |
| 2026-05-01 08:31 | 50.40945 | 18.01174 | 27894 ft | 451 kts | 295° |
| 2026-05-01 08:31 | 50.41958 | 17.96490 | 28240 ft | 453 kts | 295° |
| 2026-05-01 08:31 | 50.42960 | 17.91855 | 28577 ft | 456 kts | 295° |
| 2026-05-01 08:31 | 50.43980 | 17.87123 | 28900 ft | 458 kts | 295° |
| 2026-05-01 08:32 | 50.45003 | 17.82386 | 29223 ft | 459 kts | 296° |
| 2026-05-01 08:32 | 50.46167 | 17.77736 | 29540 ft | 458 kts | 300° |
| 2026-05-01 08:32 | 50.47447 | 17.73166 | 29848 ft | 459 kts | 301° |
| 2026-05-01 08:32 | 50.48779 | 17.68601 | 30154 ft | 460 kts | 301° |
| 2026-05-01 08:33 | 50.50123 | 17.64030 | 30456 ft | 462 kts | 301° |
| 2026-05-01 08:33 | 50.51462 | 17.59439 | 30763 ft | 462 kts | 301° |
| 2026-05-01 08:33 | 50.52783 | 17.54853 | 31162 ft | 460 kts | 301° |
| 2026-05-01 08:33 | 50.54087 | 17.50281 | 31519 ft | 459 kts | 300° |
| 2026-05-01 08:34 | 50.55390 | 17.45676 | 31833 ft | 459 kts | 300° |
| 2026-05-01 08:34 | 50.56682 | 17.41088 | 32134 ft | 459 kts | 300° |
| 2026-05-01 08:34 | 50.57972 | 17.36495 | 32480 ft | 458 kts | 300° |
| 2026-05-01 08:34 | 50.59269 | 17.31864 | 32840 ft | 456 kts | 300° |
| 2026-05-01 08:35 | 50.60549 | 17.27285 | 33160 ft | 456 kts | 300° |
| 2026-05-01 08:35 | 50.61838 | 17.22667 | 33458 ft | 455 kts | 300° |
| 2026-05-01 08:35 | 50.63067 | 17.18259 | 33758 ft | 455 kts | 300° |
| 2026-05-01 08:35 | 50.64335 | 17.13701 | 34090 ft | 453 kts | 300° |
| 2026-05-01 08:36 | 50.65595 | 17.09162 | 34385 ft | 453 kts | 300° |
| 2026-05-01 08:36 | 50.66850 | 17.04632 | 34626 ft | 453 kts | 300° |
| 2026-05-01 08:36 | 50.68098 | 17.00124 | 34881 ft | 452 kts | 300° |
| 2026-05-01 08:36 | 50.69349 | 16.95592 | 35155 ft | 451 kts | 300° |
| 2026-05-01 08:37 | 50.70599 | 16.91056 | 35389 ft | 450 kts | 299° |
| 2026-05-01 08:37 | 50.71865 | 16.86452 | 35628 ft | 450 kts | 299° |
| 2026-05-01 08:37 | 50.73076 | 16.82040 | 35858 ft | 449 kts | 299° |
| 2026-05-01 08:37 | 50.74332 | 16.77456 | 36093 ft | 448 kts | 299° |
| 2026-05-01 08:38 | 50.75563 | 16.72952 | 36320 ft | 448 kts | 299° |
| 2026-05-01 08:38 | 50.78061 | 16.63799 | 36388 ft | 451 kts | 299° |
| 2026-05-01 08:39 | 50.80520 | 16.54737 | 36388 ft | 447 kts | 298° |
| 2026-05-01 08:39 | 50.82970 | 16.45675 | 36389 ft | 443 kts | 298° |
| 2026-05-01 08:40 | 50.86536 | 16.32430 | 36399 ft | 441 kts | 298° |
| 2026-05-01 08:40 | 50.88928 | 16.23502 | 36398 ft | 440 kts | 298° |
| 2026-05-01 08:41 | 50.91315 | 16.14567 | 36406 ft | 440 kts | 298° |
| 2026-05-01 08:41 | 50.93948 | 16.05845 | 36390 ft | 434 kts | 308° |
| 2026-05-01 08:42 | 50.97320 | 15.97912 | 36402 ft | 435 kts | 310° |
| 2026-05-01 08:42 | 51.00700 | 15.90049 | 36405 ft | 437 kts | 309° |
| 2026-05-01 08:43 | 51.04116 | 15.81951 | 36410 ft | 439 kts | 308° |
| 2026-05-01 08:43 | 51.07504 | 15.73835 | 36408 ft | 441 kts | 308° |
| 2026-05-01 08:44 | 51.10893 | 15.65695 | 36404 ft | 442 kts | 308° |
| 2026-05-01 08:44 | 51.14329 | 15.57495 | 36409 ft | 441 kts | 309° |
| 2026-05-01 08:45 | 51.17814 | 15.49485 | 36410 ft | 441 kts | 309° |
| 2026-05-01 08:45 | 51.21314 | 15.41455 | 36411 ft | 440 kts | 309° |
| 2026-05-01 08:46 | 51.24795 | 15.33405 | 36413 ft | 440 kts | 309° |
| 2026-05-01 08:46 | 51.28252 | 15.25364 | 36412 ft | 439 kts | 309° |
| 2026-05-01 08:47 | 51.31688 | 15.17346 | 36415 ft | 438 kts | 309° |
| 2026-05-01 08:47 | 51.35097 | 15.09369 | 36412 ft | 437 kts | 308° |
| 2026-05-01 08:48 | 51.38512 | 15.01355 | 36418 ft | 436 kts | 308° |
| 2026-05-01 08:48 | 51.40979 | 14.94175 | 36417 ft | 442 kts | 295° |
| 2026-05-01 08:49 | 51.42593 | 14.84606 | 36425 ft | 446 kts | 287° |
| 2026-05-01 08:49 | 51.43971 | 14.74903 | 36421 ft | 446 kts | 287° |
| 2026-05-01 08:50 | 51.45380 | 14.65268 | 36419 ft | 446 kts | 287° |
| 2026-05-01 08:50 | 51.46843 | 14.55467 | 36424 ft | 446 kts | 287° |
| 2026-05-01 08:51 | 51.48273 | 14.45862 | 36425 ft | 447 kts | 287° |
| 2026-05-01 08:51 | 51.49701 | 14.36209 | 36429 ft | 447 kts | 287° |
| 2026-05-01 08:52 | 51.51181 | 14.26505 | 36424 ft | 446 kts | 291° |
| 2026-05-01 08:52 | 51.53725 | 14.17618 | 36437 ft | 440 kts | 302° |
| 2026-05-01 08:53 | 51.56670 | 14.08996 | 36428 ft | 440 kts | 302° |
| 2026-05-01 08:53 | 51.59600 | 14.00370 | 36436 ft | 440 kts | 302° |
| 2026-05-01 08:54 | 51.62470 | 13.91785 | 36428 ft | 440 kts | 301° |
| 2026-05-01 08:54 | 51.65327 | 13.83152 | 36427 ft | 439 kts | 301° |
| 2026-05-01 08:55 | 51.68189 | 13.74457 | 36419 ft | 439 kts | 301° |
| 2026-05-01 08:55 | 51.71035 | 13.65781 | 36427 ft | 438 kts | 301° |
| 2026-05-01 08:56 | 51.73882 | 13.57075 | 36422 ft | 438 kts | 301° |
| 2026-05-01 08:56 | 51.76751 | 13.48272 | 36426 ft | 437 kts | 301° |
| 2026-05-01 08:57 | 51.79580 | 13.39561 | 36423 ft | 437 kts | 301° |
| 2026-05-01 08:57 | 51.82399 | 13.30848 | 36428 ft | 437 kts | 300° |
| 2026-05-01 08:58 | 51.85210 | 13.22131 | 36426 ft | 437 kts | 300° |
| 2026-05-01 08:58 | 51.88011 | 13.13412 | 36424 ft | 436 kts | 300° |
| 2026-05-01 08:59 | 51.90804 | 13.04690 | 36426 ft | 436 kts | 300° |
| 2026-05-01 08:59 | 51.93603 | 12.95917 | 36422 ft | 436 kts | 300° |